sensor_id;sensor_type;location;lat;lon;timestamp;pressure;altitude;pressure_sealevel;temperature;humidity
28648;BME280;17137;51.494;-0.262;2023-03-26T00:00:00;50378.56;;;-145.72;81.81
28648;BME280;17137;51.494;-0.262;2023-03-26T00:00:36;50380.54;;;-145.72;81.77
28648;BME280;17137;51.494;-0.262;2023-03-26T00:01:12;50387.32;;;-145.72;81.89
28648;BME280;17137;51.494;-0.262;2023-03-26T00:01:42;50391.01;;;-145.72;82.20
28648;BME280;17137;51.494;-0.262;2023-03-26T00:02:13;50395.21;;;-145.72;82.04
28648;BME280;17137;51.494;-0.262;2023-03-26T00:02:43;50389.29;;;-145.72;82.16
28648;BME280;17137;51.494;-0.262;2023-03-26T00:03:14;50397.79;;;-145.72;82.41
28648;BME280;17137;51.494;-0.262;2023-03-26T00:03:44;50391.01;;;-145.72;83.06
28648;BME280;17137;51.494;-0.262;2023-03-26T00:04:15;50381.52;;;-145.72;82.67
28648;BME280;17137;51.494;-0.262;2023-03-26T00:04:45;50385.96;;;-145.72;82.56
28648;BME280;17137;51.494;-0.262;2023-03-26T00:05:16;50390.27;;;-145.72;82.64
28648;BME280;17137;51.494;-0.262;2023-03-26T00:05:47;50389.78;;;-145.72;82.90
28648;BME280;17137;51.494;-0.262;2023-03-26T00:06:19;50389.90;;;-145.72;83.00
28648;BME280;17137;51.494;-0.262;2023-03-26T00:06:50;50384.85;;;-145.72;83.05
28648;BME280;17137;51.494;-0.262;2023-03-26T00:07:20;50395.70;;;-145.72;83.00
28648;BME280;17137;51.494;-0.262;2023-03-26T00:07:50;50397.92;;;-145.72;83.36
28648;BME280;17137;51.494;-0.262;2023-03-26T00:08:21;50390.64;;;-145.72;83.41
28648;BME280;17137;51.494;-0.262;2023-03-26T00:08:52;50384.60;;;-145.72;83.28
28648;BME280;17137;51.494;-0.262;2023-03-26T00:09:22;50382.75;;;-145.72;82.82
28648;BME280;17137;51.494;-0.262;2023-03-26T00:09:52;50392.74;;;-145.72;82.86
28648;BME280;17137;51.494;-0.262;2023-03-26T00:10:23;50388.30;;;-145.72;82.97
28648;BME280;17137;51.494;-0.262;2023-03-26T00:10:54;50386.82;;;-145.72;82.96
28648;BME280;17137;51.494;-0.262;2023-03-26T00:11:26;50392.12;;;-145.72;82.88
28648;BME280;17137;51.494;-0.262;2023-03-26T00:11:57;50384.97;;;-145.72;83.22
28648;BME280;17137;51.494;-0.262;2023-03-26T00:12:27;50392.25;;;-145.72;83.38
28648;BME280;17137;51.494;-0.262;2023-03-26T00:12:58;50385.34;;;-145.72;83.32
28648;BME280;17137;51.494;-0.262;2023-03-26T00:13:29;50387.07;;;-145.72;82.98
28648;BME280;17137;51.494;-0.262;2023-03-26T00:13:59;50381.89;;;-145.72;83.00
28648;BME280;17137;51.494;-0.262;2023-03-26T00:14:35;50383.12;;;-145.72;82.99
28648;BME280;17137;51.494;-0.262;2023-03-26T00:15:06;50385.96;;;-145.72;83.07
28648;BME280;17137;51.494;-0.262;2023-03-26T00:15:37;50397.92;;;-145.72;83.41
28648;BME280;17137;51.494;-0.262;2023-03-26T00:16:08;50396.68;;;-145.72;83.16
28648;BME280;17137;51.494;-0.262;2023-03-26T00:16:39;50392.12;;;-145.72;83.02
28648;BME280;17137;51.494;-0.262;2023-03-26T00:17:10;50385.71;;;-145.72;83.17
28648;BME280;17137;51.494;-0.262;2023-03-26T00:17:40;50384.97;;;-145.72;83.05
28648;BME280;17137;51.494;-0.262;2023-03-26T00:18:10;50384.48;;;-145.72;82.97
28648;BME280;17137;51.494;-0.262;2023-03-26T00:18:41;50382.88;;;-145.72;82.89
28648;BME280;17137;51.494;-0.262;2023-03-26T00:19:11;50384.60;;;-145.72;82.77
28648;BME280;17137;51.494;-0.262;2023-03-26T00:19:42;50385.34;;;-145.72;82.72
28648;BME280;17137;51.494;-0.262;2023-03-26T00:20:13;50382.39;;;-145.72;82.80
28648;BME280;17137;51.494;-0.262;2023-03-26T00:20:43;50382.39;;;-145.72;82.88
28648;BME280;17137;51.494;-0.262;2023-03-26T00:21:16;50379.67;;;-145.72;82.76
28648;BME280;17137;51.494;-0.262;2023-03-26T00:21:46;50383.62;;;-145.72;82.96
28648;BME280;17137;51.494;-0.262;2023-03-26T00:22:18;50397.55;;;-145.72;83.25
28648;BME280;17137;51.494;-0.262;2023-03-26T00:22:48;50391.75;;;-145.72;83.55
28648;BME280;17137;51.494;-0.262;2023-03-26T00:23:18;50391.88;;;-145.72;83.57
28648;BME280;17137;51.494;-0.262;2023-03-26T00:23:48;50383.00;;;-145.72;83.43
28648;BME280;17137;51.494;-0.262;2023-03-26T00:24:19;50385.10;;;-145.72;83.09
28648;BME280;17137;51.494;-0.262;2023-03-26T00:24:49;50391.14;;;-145.72;83.10
28648;BME280;17137;51.494;-0.262;2023-03-26T00:25:20;50387.81;;;-145.72;83.13
28648;BME280;17137;51.494;-0.262;2023-03-26T00:25:50;50389.78;;;-145.72;83.13
28648;BME280;17137;51.494;-0.262;2023-03-26T00:26:20;50385.71;;;-145.72;82.75
28648;BME280;17137;51.494;-0.262;2023-03-26T00:26:51;50383.86;;;-145.72;82.92
28648;BME280;17137;51.494;-0.262;2023-03-26T00:27:21;50394.10;;;-145.72;83.22
28648;BME280;17137;51.494;-0.262;2023-03-26T00:27:51;50384.73;;;-145.72;83.19
28648;BME280;17137;51.494;-0.262;2023-03-26T00:28:23;50378.44;;;-145.72;82.89
28648;BME280;17137;51.494;-0.262;2023-03-26T00:28:53;50384.23;;;-145.72;82.62
28648;BME280;17137;51.494;-0.262;2023-03-26T00:29:24;50386.33;;;-145.72;82.53
28648;BME280;17137;51.494;-0.262;2023-03-26T00:29:54;50382.14;;;-145.72;82.54
28648;BME280;17137;51.494;-0.262;2023-03-26T00:30:24;50383.62;;;-145.72;82.64
28648;BME280;17137;51.494;-0.262;2023-03-26T00:30:59;50392.37;;;-145.72;83.01
28648;BME280;17137;51.494;-0.262;2023-03-26T00:31:30;50402.60;;;-145.72;84.46
28648;BME280;17137;51.494;-0.262;2023-03-26T00:32:01;50399.64;;;-145.72;85.37
28648;BME280;17137;51.494;-0.262;2023-03-26T00:32:31;50395.45;;;-145.72;84.95
28648;BME280;17137;51.494;-0.262;2023-03-26T00:33:02;50387.81;;;-145.72;84.48
28648;BME280;17137;51.494;-0.262;2023-03-26T00:33:33;50397.55;;;-145.72;84.82
28648;BME280;17137;51.494;-0.262;2023-03-26T00:34:03;50391.38;;;-145.72;84.57
28648;BME280;17137;51.494;-0.262;2023-03-26T00:34:33;50392.25;;;-145.72;84.42
28648;BME280;17137;51.494;-0.262;2023-03-26T00:35:04;50396.93;;;-145.72;84.24
28648;BME280;17137;51.494;-0.262;2023-03-26T00:35:36;50387.07;;;-145.72;84.05
28648;BME280;17137;51.494;-0.262;2023-03-26T00:36:09;50383.49;;;-145.72;84.25
28648;BME280;17137;51.494;-0.262;2023-03-26T00:36:40;50393.23;;;-145.72;84.12
28648;BME280;17137;51.494;-0.262;2023-03-26T00:37:10;50401.49;;;-145.72;84.15
28648;BME280;17137;51.494;-0.262;2023-03-26T00:37:40;50393.11;;;-145.72;84.08
28648;BME280;17137;51.494;-0.262;2023-03-26T00:38:11;50404.82;;;-145.72;84.18
28648;BME280;17137;51.494;-0.262;2023-03-26T00:38:43;50381.89;;;-145.72;84.14
28648;BME280;17137;51.494;-0.262;2023-03-26T00:39:14;50399.77;;;-145.72;85.50
28648;BME280;17137;51.494;-0.262;2023-03-26T00:39:44;50405.81;;;-145.72;85.92
28648;BME280;17137;51.494;-0.262;2023-03-26T00:40:15;50402.97;;;-145.72;85.78
28648;BME280;17137;51.494;-0.262;2023-03-26T00:40:45;50409.01;;;-145.72;86.19
28648;BME280;17137;51.494;-0.262;2023-03-26T00:41:17;50404.08;;;-145.72;85.78
28648;BME280;17137;51.494;-0.262;2023-03-26T00:41:48;50393.48;;;-145.72;85.57
28648;BME280;17137;51.494;-0.262;2023-03-26T00:42:18;50403.59;;;-145.72;85.43
28648;BME280;17137;51.494;-0.262;2023-03-26T00:42:48;50409.50;;;-145.72;85.62
28648;BME280;17137;51.494;-0.262;2023-03-26T00:43:20;50404.57;;;-145.72;85.82
28648;BME280;17137;51.494;-0.262;2023-03-26T00:43:52;50400.14;;;-145.72;85.94
28648;BME280;17137;51.494;-0.262;2023-03-26T00:44:23;50395.33;;;-145.72;85.57
28648;BME280;17137;51.494;-0.262;2023-03-26T00:44:53;50396.56;;;-145.72;85.66
28648;BME280;17137;51.494;-0.262;2023-03-26T00:45:23;50393.11;;;-145.72;85.67
28648;BME280;17137;51.494;-0.262;2023-03-26T00:45:54;50401.00;;;-145.72;85.78
28648;BME280;17137;51.494;-0.262;2023-03-26T00:46:26;50402.48;;;-145.72;85.73
28648;BME280;17137;51.494;-0.262;2023-03-26T00:46:57;50400.51;;;-145.72;85.91
28648;BME280;17137;51.494;-0.262;2023-03-26T00:47:28;50405.81;;;-145.72;85.88
28648;BME280;17137;51.494;-0.262;2023-03-26T00:47:58;50393.60;;;-145.72;85.72
28648;BME280;17137;51.494;-0.262;2023-03-26T00:48:29;50398.90;;;-145.72;85.86
28648;BME280;17137;51.494;-0.262;2023-03-26T00:49:00;50402.85;;;-145.72;85.73
28648;BME280;17137;51.494;-0.262;2023-03-26T00:49:30;50392.99;;;-145.72;85.72
28648;BME280;17137;51.494;-0.262;2023-03-26T00:50:01;50395.45;;;-145.72;85.90
28648;BME280;17137;51.494;-0.262;2023-03-26T00:50:31;50400.51;;;-145.72;85.79
28648;BME280;17137;51.494;-0.262;2023-03-26T00:51:01;50390.77;;;-145.72;85.45
28648;BME280;17137;51.494;-0.262;2023-03-26T00:51:32;50394.71;;;-145.72;85.29
28648;BME280;17137;51.494;-0.262;2023-03-26T00:52:02;50392.25;;;-145.72;85.37
28648;BME280;17137;51.494;-0.262;2023-03-26T00:52:33;50393.36;;;-145.72;85.63
28648;BME280;17137;51.494;-0.262;2023-03-26T00:53:03;50400.38;;;-145.72;85.76
28648;BME280;17137;51.494;-0.262;2023-03-26T00:53:34;50403.22;;;-145.72;85.64
28648;BME280;17137;51.494;-0.262;2023-03-26T00:54:04;50397.55;;;-145.72;85.15
28648;BME280;17137;51.494;-0.262;2023-03-26T00:54:35;50395.94;;;-145.72;85.01
28648;BME280;17137;51.494;-0.262;2023-03-26T00:55:06;50391.38;;;-145.72;85.15
28648;BME280;17137;51.494;-0.262;2023-03-26T00:55:37;50390.27;;;-145.72;85.28
28648;BME280;17137;51.494;-0.262;2023-03-26T00:56:13;50388.92;;;-145.72;85.36
28648;BME280;17137;51.494;-0.262;2023-03-26T00:56:44;50401.00;;;-145.72;85.56
28648;BME280;17137;51.494;-0.262;2023-03-26T00:57:14;50396.07;;;-145.72;85.41
28648;BME280;17137;51.494;-0.262;2023-03-26T00:57:44;50397.30;;;-145.72;85.36
28648;BME280;17137;51.494;-0.262;2023-03-26T00:58:15;50403.22;;;-145.72;85.51
28648;BME280;17137;51.494;-0.262;2023-03-26T00:58:46;50388.80;;;-145.72;85.66
28648;BME280;17137;51.494;-0.262;2023-03-26T00:59:17;50396.19;;;-145.72;85.71
28648;BME280;17137;51.494;-0.262;2023-03-26T00:59:48;50409.14;;;-145.72;86.84
28648;BME280;17137;51.494;-0.262;2023-03-26T01:00:27;50412.59;;;-145.72;86.64
28648;BME280;17137;51.494;-0.262;2023-03-26T01:01:00;50415.92;;;-145.72;86.61
28648;BME280;17137;51.494;-0.262;2023-03-26T01:01:31;50400.75;;;-145.72;86.67
28648;BME280;17137;51.494;-0.262;2023-03-26T01:02:01;50395.45;;;-145.72;86.63
28648;BME280;17137;51.494;-0.262;2023-03-26T01:02:31;50405.07;;;-145.72;86.40
28648;BME280;17137;51.494;-0.262;2023-03-26T01:03:04;50401.99;;;-145.72;86.43
28648;BME280;17137;51.494;-0.262;2023-03-26T01:03:36;50407.90;;;-145.72;86.36
28648;BME280;17137;51.494;-0.262;2023-03-26T01:04:38;50396.56;;;-145.72;86.48
28648;BME280;17137;51.494;-0.262;2023-03-26T01:05:45;50404.57;;;-145.72;86.92
28648;BME280;17137;51.494;-0.262;2023-03-26T01:06:22;50397.42;;;-145.72;87.01
28648;BME280;17137;51.494;-0.262;2023-03-26T01:06:54;50397.30;;;-145.72;86.67
28648;BME280;17137;51.494;-0.262;2023-03-26T01:07:25;50382.88;;;-145.72;86.48
28648;BME280;17137;51.494;-0.262;2023-03-26T01:07:56;50393.73;;;-145.72;86.23
28648;BME280;17137;51.494;-0.262;2023-03-26T01:08:30;50411.35;;;-145.72;86.68
28648;BME280;17137;51.494;-0.262;2023-03-26T01:09:03;50399.15;;;-145.72;86.43
28648;BME280;17137;51.494;-0.262;2023-03-26T01:09:36;50404.20;;;-145.72;86.37
28648;BME280;17137;51.494;-0.262;2023-03-26T01:10:08;50399.89;;;-145.72;86.33
28648;BME280;17137;51.494;-0.262;2023-03-26T01:10:38;50398.53;;;-145.72;86.40
28648;BME280;17137;51.494;-0.262;2023-03-26T01:11:11;50405.93;;;-145.72;86.27
28648;BME280;17137;51.494;-0.262;2023-03-26T01:11:43;50408.89;;;-145.72;86.36
28648;BME280;17137;51.494;-0.262;2023-03-26T01:12:15;50415.05;;;-145.72;86.30
28648;BME280;17137;51.494;-0.262;2023-03-26T01:12:52;50405.56;;;-145.72;86.22
28648;BME280;17137;51.494;-0.262;2023-03-26T01:13:23;50399.64;;;-145.72;86.51
28648;BME280;17137;51.494;-0.262;2023-03-26T01:13:56;50403.34;;;-145.72;86.43
28648;BME280;17137;51.494;-0.262;2023-03-26T01:14:28;50408.27;;;-145.72;86.38
28648;BME280;17137;51.494;-0.262;2023-03-26T01:15:00;50405.56;;;-145.72;86.44
28648;BME280;17137;51.494;-0.262;2023-03-26T01:15:31;50404.33;;;-145.72;86.55
28648;BME280;17137;51.494;-0.262;2023-03-26T01:16:04;50396.93;;;-145.72;86.46
28648;BME280;17137;51.494;-0.262;2023-03-26T01:16:39;50403.96;;;-145.72;86.49
28648;BME280;17137;51.494;-0.262;2023-03-26T01:17:10;50403.71;;;-145.72;86.36
28648;BME280;17137;51.494;-0.262;2023-03-26T01:17:41;50399.40;;;-145.72;86.36
28648;BME280;17137;51.494;-0.262;2023-03-26T01:18:12;50397.30;;;-145.72;86.60
28648;BME280;17137;51.494;-0.262;2023-03-26T01:18:42;50406.55;;;-145.72;86.52
28648;BME280;17137;51.494;-0.262;2023-03-26T01:19:18;50407.78;;;-145.72;86.39
28648;BME280;17137;51.494;-0.262;2023-03-26T01:19:53;50395.94;;;-145.72;86.44
28648;BME280;17137;51.494;-0.262;2023-03-26T01:20:26;50402.60;;;-145.72;86.32
28648;BME280;17137;51.494;-0.262;2023-03-26T01:20:57;50394.34;;;-145.72;86.22
28648;BME280;17137;51.494;-0.262;2023-03-26T01:21:28;50399.15;;;-145.72;86.23
28648;BME280;17137;51.494;-0.262;2023-03-26T01:21:59;50405.93;;;-145.72;86.25
28648;BME280;17137;51.494;-0.262;2023-03-26T01:22:29;50403.59;;;-145.72;86.71
28648;BME280;17137;51.494;-0.262;2023-03-26T01:23:02;50416.28;;;-145.72;86.97
28648;BME280;17137;51.494;-0.262;2023-03-26T01:23:41;50410.37;;;-145.72;87.21
28648;BME280;17137;51.494;-0.262;2023-03-26T01:24:12;50411.97;;;-145.72;87.16
28648;BME280;17137;51.494;-0.262;2023-03-26T01:24:42;50415.55;;;-145.72;86.90
28648;BME280;17137;51.494;-0.262;2023-03-26T01:25:12;50403.83;;;-145.72;86.69
28648;BME280;17137;51.494;-0.262;2023-03-26T01:25:48;50411.48;;;-145.72;86.61
28648;BME280;17137;51.494;-0.262;2023-03-26T01:26:35;50402.72;;;-145.72;86.53
28648;BME280;17137;51.494;-0.262;2023-03-26T01:27:16;50419.24;;;-145.72;86.49
28648;BME280;17137;51.494;-0.262;2023-03-26T01:27:51;50411.72;;;-145.72;86.77
28648;BME280;17137;51.494;-0.262;2023-03-26T01:28:24;50407.04;;;-145.72;86.64
28648;BME280;17137;51.494;-0.262;2023-03-26T01:28:58;50404.82;;;-145.72;86.42
28648;BME280;17137;51.494;-0.262;2023-03-26T01:29:37;50412.46;;;-145.72;86.23
28648;BME280;17137;51.494;-0.262;2023-03-26T01:30:15;50412.22;;;-145.72;86.23
28648;BME280;17137;51.494;-0.262;2023-03-26T01:30:54;50408.77;;;-145.72;86.11
28648;BME280;17137;51.494;-0.262;2023-03-26T01:31:30;50406.18;;;-145.72;85.90
28648;BME280;17137;51.494;-0.262;2023-03-26T01:32:08;50400.63;;;-145.72;86.06
28648;BME280;17137;51.494;-0.262;2023-03-26T01:32:50;50415.55;;;-145.72;86.10
28648;BME280;17137;51.494;-0.262;2023-03-26T01:33:27;50404.94;;;-145.72;86.09
28648;BME280;17137;51.494;-0.262;2023-03-26T01:34:05;50412.46;;;-145.72;86.16
28648;BME280;17137;51.494;-0.262;2023-03-26T01:34:49;50404.70;;;-145.72;86.21
28648;BME280;17137;51.494;-0.262;2023-03-26T01:35:31;50426.15;;;-145.72;86.25
28648;BME280;17137;51.494;-0.262;2023-03-26T01:36:08;50414.56;;;-145.72;86.27
28648;BME280;17137;51.494;-0.262;2023-03-26T01:36:52;50416.28;;;-145.72;86.19
28648;BME280;17137;51.494;-0.262;2023-03-26T01:37:32;50400.88;;;-145.72;85.99
28648;BME280;17137;51.494;-0.262;2023-03-26T01:38:12;50413.08;;;-145.72;85.94
28648;BME280;17137;51.494;-0.262;2023-03-26T01:38:50;50416.04;;;-145.72;85.80
28648;BME280;17137;51.494;-0.262;2023-03-26T01:39:27;50412.09;;;-145.72;86.12
28648;BME280;17137;51.494;-0.262;2023-03-26T01:40:04;50420.60;;;-145.72;85.75
28648;BME280;17137;51.494;-0.262;2023-03-26T01:40:42;50416.41;;;-145.72;85.86
28648;BME280;17137;51.494;-0.262;2023-03-26T01:41:18;50404.08;;;-145.72;85.56
28648;BME280;17137;51.494;-0.262;2023-03-26T01:41:52;50404.33;;;-145.72;85.34
28648;BME280;17137;51.494;-0.262;2023-03-26T01:42:34;50414.93;;;-145.72;85.94
28648;BME280;17137;51.494;-0.262;2023-03-26T01:43:10;50414.93;;;-145.72;86.37
28648;BME280;17137;51.494;-0.262;2023-03-26T01:43:46;50419.61;;;-145.72;86.37
28648;BME280;17137;51.494;-0.262;2023-03-26T01:44:22;50420.23;;;-145.72;86.38
28648;BME280;17137;51.494;-0.262;2023-03-26T01:45:00;50413.70;;;-145.72;86.23
28648;BME280;17137;51.494;-0.262;2023-03-26T01:45:36;50408.64;;;-145.72;86.25
28648;BME280;17137;51.494;-0.262;2023-03-26T01:46:09;50404.57;;;-145.72;86.25
28648;BME280;17137;51.494;-0.262;2023-03-26T01:46:41;50406.18;;;-145.72;86.08
28648;BME280;17137;51.494;-0.262;2023-03-26T01:47:12;50411.11;;;-145.72;85.99
28648;BME280;17137;51.494;-0.262;2023-03-26T01:47:43;50407.53;;;-145.72;85.58
28648;BME280;17137;51.494;-0.262;2023-03-26T01:48:14;50408.27;;;-145.72;85.37
28648;BME280;17137;51.494;-0.262;2023-03-26T01:48:46;50399.77;;;-145.72;85.38
28648;BME280;17137;51.494;-0.262;2023-03-26T01:49:18;50405.19;;;-145.72;85.29
28648;BME280;17137;51.494;-0.262;2023-03-26T01:49:48;50404.08;;;-145.72;84.64
28648;BME280;17137;51.494;-0.262;2023-03-26T01:50:19;50406.18;;;-145.72;84.41
28648;BME280;17137;51.494;-0.262;2023-03-26T01:50:49;50390.27;;;-145.72;84.10
28648;BME280;17137;51.494;-0.262;2023-03-26T01:51:26;50403.71;;;-145.72;84.06
28648;BME280;17137;51.494;-0.262;2023-03-26T01:51:58;50395.08;;;-145.72;84.03
28648;BME280;17137;51.494;-0.262;2023-03-26T01:52:29;50406.05;;;-145.72;84.33
28648;BME280;17137;51.494;-0.262;2023-03-26T01:53:00;50407.53;;;-145.72;84.56
28648;BME280;17137;51.494;-0.262;2023-03-26T01:53:31;50406.79;;;-145.72;84.59
28648;BME280;17137;51.494;-0.262;2023-03-26T01:54:04;50402.97;;;-145.72;84.52
28648;BME280;17137;51.494;-0.262;2023-03-26T01:54:35;50409.01;;;-145.72;84.54
28648;BME280;17137;51.494;-0.262;2023-03-26T01:55:07;50409.01;;;-145.72;84.35
28648;BME280;17137;51.494;-0.262;2023-03-26T01:55:46;50412.22;;;-145.72;84.15
28648;BME280;17137;51.494;-0.262;2023-03-26T01:56:26;50406.67;;;-145.72;83.97
28648;BME280;17137;51.494;-0.262;2023-03-26T01:57:04;50397.30;;;-145.72;83.95
28648;BME280;17137;51.494;-0.262;2023-03-26T01:57:50;50412.71;;;-145.72;84.36
28648;BME280;17137;51.494;-0.262;2023-03-26T01:58:28;50408.89;;;-145.72;84.70
28648;BME280;17137;51.494;-0.262;2023-03-26T01:59:10;50412.09;;;-145.72;84.33
28648;BME280;17137;51.494;-0.262;2023-03-26T01:59:57;50408.03;;;-145.72;84.57
28648;BME280;17137;51.494;-0.262;2023-03-26T02:00:35;50412.83;;;-145.72;84.40
28648;BME280;17137;51.494;-0.262;2023-03-26T02:01:17;50402.72;;;-145.72;84.41
28648;BME280;17137;51.494;-0.262;2023-03-26T02:01:57;50403.22;;;-145.72;84.45
28648;BME280;17137;51.494;-0.262;2023-03-26T02:02:32;50414.81;;;-145.72;84.50
28648;BME280;17137;51.494;-0.262;2023-03-26T02:03:15;50421.22;;;-145.72;84.70
28648;BME280;17137;51.494;-0.262;2023-03-26T02:03:57;50415.67;;;-145.72;85.16
28648;BME280;17137;51.494;-0.262;2023-03-26T02:04:33;50417.02;;;-145.72;85.16
28648;BME280;17137;51.494;-0.262;2023-03-26T02:05:10;50413.94;;;-145.72;85.27
28648;BME280;17137;51.494;-0.262;2023-03-26T02:05:48;50418.01;;;-145.72;85.24
28648;BME280;17137;51.494;-0.262;2023-03-26T02:06:24;50412.71;;;-145.72;84.88
28648;BME280;17137;51.494;-0.262;2023-03-26T02:06:58;50411.85;;;-145.72;84.71
28648;BME280;17137;51.494;-0.262;2023-03-26T02:07:36;50421.96;;;-145.72;84.92
28648;BME280;17137;51.494;-0.262;2023-03-26T02:08:13;50422.57;;;-145.72;85.17
28648;BME280;17137;51.494;-0.262;2023-03-26T02:08:50;50420.85;;;-145.72;85.62
28648;BME280;17137;51.494;-0.262;2023-03-26T02:09:24;50416.78;;;-145.72;85.60
28648;BME280;17137;51.494;-0.262;2023-03-26T02:10:01;50407.53;;;-145.72;85.33
28648;BME280;17137;51.494;-0.262;2023-03-26T02:10:35;50409.26;;;-145.72;84.84
28648;BME280;17137;51.494;-0.262;2023-03-26T02:11:10;50396.44;;;-145.72;84.47
28648;BME280;17137;51.494;-0.262;2023-03-26T02:11:42;50417.76;;;-145.72;85.22
28648;BME280;17137;51.494;-0.262;2023-03-26T02:12:14;50409.63;;;-145.72;85.18
28648;BME280;17137;51.494;-0.262;2023-03-26T02:12:45;50409.50;;;-145.72;84.97
28648;BME280;17137;51.494;-0.262;2023-03-26T02:13:15;50402.60;;;-145.72;84.80
28648;BME280;17137;51.494;-0.262;2023-03-26T02:13:46;50422.82;;;-145.72;84.89
28648;BME280;17137;51.494;-0.262;2023-03-26T02:14:17;50399.03;;;-145.72;84.73
28648;BME280;17137;51.494;-0.262;2023-03-26T02:14:48;50405.07;;;-145.72;84.55
28648;BME280;17137;51.494;-0.262;2023-03-26T02:15:19;50404.08;;;-145.72;84.56
28648;BME280;17137;51.494;-0.262;2023-03-26T02:15:59;50409.75;;;-145.72;84.46
28648;BME280;17137;51.494;-0.262;2023-03-26T02:16:30;50409.01;;;-145.72;84.55
28648;BME280;17137;51.494;-0.262;2023-03-26T02:17:00;50424.54;;;-145.72;84.99
28648;BME280;17137;51.494;-0.262;2023-03-26T02:17:30;50421.22;;;-145.72;85.31
28648;BME280;17137;51.494;-0.262;2023-03-26T02:18:01;50418.63;;;-145.72;85.19
28648;BME280;17137;51.494;-0.262;2023-03-26T02:18:31;50415.30;;;-145.72;85.07
28648;BME280;17137;51.494;-0.262;2023-03-26T02:19:03;50416.90;;;-145.72;84.95
28648;BME280;17137;51.494;-0.262;2023-03-26T02:19:33;50417.64;;;-145.72;84.94
28648;BME280;17137;51.494;-0.262;2023-03-26T02:20:05;50412.83;;;-145.72;84.84
28648;BME280;17137;51.494;-0.262;2023-03-26T02:20:35;50409.75;;;-145.72;84.43
28648;BME280;17137;51.494;-0.262;2023-03-26T02:21:08;50414.81;;;-145.72;84.54
28648;BME280;17137;51.494;-0.262;2023-03-26T02:21:40;50418.50;;;-145.72;84.40
28648;BME280;17137;51.494;-0.262;2023-03-26T02:22:11;50417.52;;;-145.72;84.50
28648;BME280;17137;51.494;-0.262;2023-03-26T02:22:41;50414.93;;;-145.72;84.39
28648;BME280;17137;51.494;-0.262;2023-03-26T02:23:12;50411.72;;;-145.72;84.36
28648;BME280;17137;51.494;-0.262;2023-03-26T02:23:43;50407.78;;;-145.72;84.33
28648;BME280;17137;51.494;-0.262;2023-03-26T02:24:13;50406.05;;;-145.72;84.38
28648;BME280;17137;51.494;-0.262;2023-03-26T02:24:44;50409.63;;;-145.72;83.95
28648;BME280;17137;51.494;-0.262;2023-03-26T02:25:16;50404.70;;;-145.72;83.91
28648;BME280;17137;51.494;-0.262;2023-03-26T02:25:47;50410.37;;;-145.72;84.09
28648;BME280;17137;51.494;-0.262;2023-03-26T02:26:19;50408.15;;;-145.72;83.85
28648;BME280;17137;51.494;-0.262;2023-03-26T02:26:49;50405.31;;;-145.72;83.63
28648;BME280;17137;51.494;-0.262;2023-03-26T02:27:19;50415.05;;;-145.72;83.39
28648;BME280;17137;51.494;-0.262;2023-03-26T02:27:51;50402.85;;;-145.72;83.21
28648;BME280;17137;51.494;-0.262;2023-03-26T02:28:27;50405.19;;;-145.72;83.14
28648;BME280;17137;51.494;-0.262;2023-03-26T02:28:57;50406.79;;;-145.72;84.31
28648;BME280;17137;51.494;-0.262;2023-03-26T02:29:33;50408.03;;;-145.72;84.17
28648;BME280;17137;51.494;-0.262;2023-03-26T02:30:08;50407.29;;;-145.72;83.78
28648;BME280;17137;51.494;-0.262;2023-03-26T02:30:39;50401.37;;;-145.72;83.52
28648;BME280;17137;51.494;-0.262;2023-03-26T02:31:09;50401.37;;;-145.72;83.48
28648;BME280;17137;51.494;-0.262;2023-03-26T02:31:40;50411.60;;;-145.72;83.70
28648;BME280;17137;51.494;-0.262;2023-03-26T02:32:10;50416.16;;;-145.72;83.60
28648;BME280;17137;51.494;-0.262;2023-03-26T02:32:41;50412.71;;;-145.72;83.80
28648;BME280;17137;51.494;-0.262;2023-03-26T02:33:11;50413.33;;;-145.72;83.79
28648;BME280;17137;51.494;-0.262;2023-03-26T02:33:42;50408.03;;;-145.72;83.65
28648;BME280;17137;51.494;-0.262;2023-03-26T02:34:12;50404.70;;;-145.72;83.60
28648;BME280;17137;51.494;-0.262;2023-03-26T02:34:42;50399.03;;;-145.72;83.68
28648;BME280;17137;51.494;-0.262;2023-03-26T02:35:13;50406.30;;;-145.72;83.45
28648;BME280;17137;51.494;-0.262;2023-03-26T02:35:43;50408.27;;;-145.72;83.24
28648;BME280;17137;51.494;-0.262;2023-03-26T02:36:14;50396.56;;;-145.72;83.04
28648;BME280;17137;51.494;-0.262;2023-03-26T02:36:44;50405.44;;;-145.72;82.91
28648;BME280;17137;51.494;-0.262;2023-03-26T02:37:14;50410.86;;;-145.72;83.30
28648;BME280;17137;51.494;-0.262;2023-03-26T02:37:45;50400.38;;;-145.72;83.30
28648;BME280;17137;51.494;-0.262;2023-03-26T02:38:15;50403.96;;;-145.72;83.57
28648;BME280;17137;51.494;-0.262;2023-03-26T02:38:46;50414.44;;;-145.72;84.18
28648;BME280;17137;51.494;-0.262;2023-03-26T02:39:16;50402.23;;;-145.72;84.09
28648;BME280;17137;51.494;-0.262;2023-03-26T02:39:47;50405.93;;;-145.72;84.49
28648;BME280;17137;51.494;-0.262;2023-03-26T02:40:18;50392.12;;;-145.72;84.35
28648;BME280;17137;51.494;-0.262;2023-03-26T02:40:48;50396.93;;;-145.72;84.24
28648;BME280;17137;51.494;-0.262;2023-03-26T02:41:19;50400.14;;;-145.72;84.65
28648;BME280;17137;51.494;-0.262;2023-03-26T02:41:54;50397.18;;;-145.72;84.64
28648;BME280;17137;51.494;-0.262;2023-03-26T02:42:24;50402.23;;;-145.72;85.09
28648;BME280;17137;51.494;-0.262;2023-03-26T02:42:55;50406.42;;;-145.72;85.36
28648;BME280;17137;51.494;-0.262;2023-03-26T02:43:25;50404.70;;;-145.72;85.60
28648;BME280;17137;51.494;-0.262;2023-03-26T02:43:56;50408.64;;;-145.72;85.55
28648;BME280;17137;51.494;-0.262;2023-03-26T02:44:26;50416.16;;;-145.72;85.85
28648;BME280;17137;51.494;-0.262;2023-03-26T02:44:57;50411.48;;;-145.72;86.17
28648;BME280;17137;51.494;-0.262;2023-03-26T02:45:27;50408.77;;;-145.72;86.01
28648;BME280;17137;51.494;-0.262;2023-03-26T02:45:57;50412.34;;;-145.72;85.95
28648;BME280;17137;51.494;-0.262;2023-03-26T02:46:27;50416.90;;;-145.72;85.92
28648;BME280;17137;51.494;-0.262;2023-03-26T02:46:58;50424.79;;;-145.72;87.90